sensor_id;sensor_type;location;lat;lon;timestamp;temperature;humidity
9808;DHT22;4943;52.550;13.462;2023-09-08T00:01:59;21.00;99.90
9808;DHT22;4943;52.550;13.462;2023-09-08T00:04:28;21.00;99.90
9808;DHT22;4943;52.550;13.462;2023-09-08T00:06:56;20.90;99.90
9808;DHT22;4943;52.550;13.462;2023-09-08T00:09:24;20.90;99.90
9808;DHT22;4943;52.550;13.462;2023-09-08T00:11:53;20.90;99.90
9808;DHT22;4943;52.550;13.462;2023-09-08T00:14:22;20.80;99.90
9808;DHT22;4943;52.550;13.462;2023-09-08T00:16:52;20.80;99.90
9808;DHT22;4943;52.550;13.462;2023-09-08T00:19:21;20.80;99.90
9808;DHT22;4943;52.550;13.462;2023-09-08T00:21:50;20.80;99.90
9808;DHT22;4943;52.550;13.462;2023-09-08T00:24:18;20.70;99.90
9808;DHT22;4943;52.550;13.462;2023-09-08T00:26:47;20.70;99.90
9808;DHT22;4943;52.550;13.462;2023-09-08T00:29:16;20.70;99.90
9808;DHT22;4943;52.550;13.462;2023-09-08T00:31:44;20.60;99.90
9808;DHT22;4943;52.550;13.462;2023-09-08T00:34:14;20.60;99.90
9808;DHT22;4943;52.550;13.462;2023-09-08T00:36:42;20.60;99.90
9808;DHT22;4943;52.550;13.462;2023-09-08T00:39:10;20.50;99.90
9808;DHT22;4943;52.550;13.462;2023-09-08T00:41:38;20.50;99.90
9808;DHT22;4943;52.550;13.462;2023-09-08T00:44:06;20.50;99.90
9808;DHT22;4943;52.550;13.462;2023-09-08T00:46:37;20.40;99.90
9808;DHT22;4943;52.550;13.462;2023-09-08T00:49:07;20.40;99.90
9808;DHT22;4943;52.550;13.462;2023-09-08T00:51:36;20.40;99.90
9808;DHT22;4943;52.550;13.462;2023-09-08T00:54:06;20.40;99.90
9808;DHT22;4943;52.550;13.462;2023-09-08T00:56:35;20.30;99.90
9808;DHT22;4943;52.550;13.462;2023-09-08T00:59:05;20.40;99.90
9808;DHT22;4943;52.550;13.462;2023-09-08T01:01:36;20.30;99.90
9808;DHT22;4943;52.550;13.462;2023-09-08T01:04:05;20.30;99.90
9808;DHT22;4943;52.550;13.462;2023-09-08T01:06:33;20.20;99.90
9808;DHT22;4943;52.550;13.462;2023-09-08T01:09:02;20.20;99.90
9808;DHT22;4943;52.550;13.462;2023-09-08T01:11:30;20.20;99.90
9808;DHT22;4943;52.550;13.462;2023-09-08T01:13:58;20.10;99.90
9808;DHT22;4943;52.550;13.462;2023-09-08T01:16:27;20.10;99.90
9808;DHT22;4943;52.550;13.462;2023-09-08T01:18:56;20.10;99.90
9808;DHT22;4943;52.550;13.462;2023-09-08T01:21:56;20.10;99.90
9808;DHT22;4943;52.550;13.462;2023-09-08T01:27:45;20.10;99.90
9808;DHT22;4943;52.550;13.462;2023-09-08T01:30:15;20.00;99.90
9808;DHT22;4943;52.550;13.462;2023-09-08T01:32:44;20.00;99.90
9808;DHT22;4943;52.550;13.462;2023-09-08T01:35:13;20.00;99.90
9808;DHT22;4943;52.550;13.462;2023-09-08T01:37:45;20.00;99.90
9808;DHT22;4943;52.550;13.462;2023-09-08T01:40:13;19.90;99.90
9808;DHT22;4943;52.550;13.462;2023-09-08T01:42:44;19.90;99.90
9808;DHT22;4943;52.550;13.462;2023-09-08T01:45:12;19.90;99.90
9808;DHT22;4943;52.550;13.462;2023-09-08T01:47:41;19.90;99.90
9808;DHT22;4943;52.550;13.462;2023-09-08T01:50:09;19.90;99.90
9808;DHT22;4943;52.550;13.462;2023-09-08T01:52:37;19.80;99.90
9808;DHT22;4943;52.550;13.462;2023-09-08T01:55:05;19.80;99.90
9808;DHT22;4943;52.550;13.462;2023-09-08T01:57:34;19.70;99.90
9808;DHT22;4943;52.550;13.462;2023-09-08T02:00:05;19.70;99.90
9808;DHT22;4943;52.550;13.462;2023-09-08T02:02:33;19.70;99.90
9808;DHT22;4943;52.550;13.462;2023-09-08T02:05:01;19.70;99.90
9808;DHT22;4943;52.550;13.462;2023-09-08T02:07:29;19.70;99.90
9808;DHT22;4943;52.550;13.462;2023-09-08T02:09:58;19.70;99.90
9808;DHT22;4943;52.550;13.462;2023-09-08T02:12:26;19.70;99.90
9808;DHT22;4943;52.550;13.462;2023-09-08T02:14:54;19.70;99.90
9808;DHT22;4943;52.550;13.462;2023-09-08T02:17:24;19.70;99.90
9808;DHT22;4943;52.550;13.462;2023-09-08T02:19:52;19.70;99.90
9808;DHT22;4943;52.550;13.462;2023-09-08T02:22:20;19.70;99.90
9808;DHT22;4943;52.550;13.462;2023-09-08T02:24:49;19.70;99.90
9808;DHT22;4943;52.550;13.462;2023-09-08T02:27:19;19.70;99.90
9808;DHT22;4943;52.550;13.462;2023-09-08T02:29:47;19.70;99.90
9808;DHT22;4943;52.550;13.462;2023-09-08T02:32:15;19.70;99.90
9808;DHT22;4943;52.550;13.462;2023-09-08T02:34:44;19.70;99.90
9808;DHT22;4943;52.550;13.462;2023-09-08T02:37:15;19.70;99.90
9808;DHT22;4943;52.550;13.462;2023-09-08T02:39:44;19.70;99.90
9808;DHT22;4943;52.550;13.462;2023-09-08T02:42:13;19.70;99.90
9808;DHT22;4943;52.550;13.462;2023-09-08T02:44:41;19.60;99.90
9808;DHT22;4943;52.550;13.462;2023-09-08T02:47:09;19.70;99.90
9808;DHT22;4943;52.550;13.462;2023-09-08T02:49:38;19.70;99.90
9808;DHT22;4943;52.550;13.462;2023-09-08T02:52:07;19.70;99.90
9808;DHT22;4943;52.550;13.462;2023-09-08T02:54:35;19.70;99.90
9808;DHT22;4943;52.550;13.462;2023-09-08T02:57:04;19.70;99.90
9808;DHT22;4943;52.550;13.462;2023-09-08T02:59:32;19.70;99.90
9808;DHT22;4943;52.550;13.462;2023-09-08T03:02:00;19.60;99.90
9808;DHT22;4943;52.550;13.462;2023-09-08T03:04:28;19.60;99.90
9808;DHT22;4943;52.550;13.462;2023-09-08T03:06:56;19.60;99.90
9808;DHT22;4943;52.550;13.462;2023-09-08T03:09:25;19.60;99.90
9808;DHT22;4943;52.550;13.462;2023-09-08T03:11:53;19.60;99.90
9808;DHT22;4943;52.550;13.462;2023-09-08T03:14:22;19.60;99.90
9808;DHT22;4943;52.550;13.462;2023-09-08T03:16:50;19.60;99.90
9808;DHT22;4943;52.550;13.462;2023-09-08T03:19:18;19.60;99.90
9808;DHT22;4943;52.550;13.462;2023-09-08T03:21:46;19.60;99.90
9808;DHT22;4943;52.550;13.462;2023-09-08T03:24:14;19.60;99.90
9808;DHT22;4943;52.550;13.462;2023-09-08T03:26:43;19.60;99.90
9808;DHT22;4943;52.550;13.462;2023-09-08T03:29:12;19.60;99.90
9808;DHT22;4943;52.550;13.462;2023-09-08T03:31:40;19.60;99.90
9808;DHT22;4943;52.550;13.462;2023-09-08T03:34:08;19.60;99.90
9808;DHT22;4943;52.550;13.462;2023-09-08T03:36:36;19.50;99.90
9808;DHT22;4943;52.550;13.462;2023-09-08T03:39:05;19.50;99.90
9808;DHT22;4943;52.550;13.462;2023-09-08T03:41:33;19.50;99.90
9808;DHT22;4943;52.550;13.462;2023-09-08T03:44:02;19.50;99.90
9808;DHT22;4943;52.550;13.462;2023-09-08T03:46:30;19.50;99.90
9808;DHT22;4943;52.550;13.462;2023-09-08T03:48:58;19.50;99.90
9808;DHT22;4943;52.550;13.462;2023-09-08T03:51:28;19.50;99.90
9808;DHT22;4943;52.550;13.462;2023-09-08T03:53:56;19.50;99.90
9808;DHT22;4943;52.550;13.462;2023-09-08T03:56:24;19.50;99.90
9808;DHT22;4943;52.550;13.462;2023-09-08T03:58:52;19.40;99.90
9808;DHT22;4943;52.550;13.462;2023-09-08T04:01:21;19.40;99.90
9808;DHT22;4943;52.550;13.462;2023-09-08T04:03:49;19.40;99.90
9808;DHT22;4943;52.550;13.462;2023-09-08T04:06:17;19.40;99.90
9808;DHT22;4943;52.550;13.462;2023-09-08T04:08:46;19.40;99.90
9808;DHT22;4943;52.550;13.462;2023-09-08T04:11:14;19.40;99.90
9808;DHT22;4943;52.550;13.462;2023-09-08T04:13:42;19.40;99.90
9808;DHT22;4943;52.550;13.462;2023-09-08T04:16:10;19.40;99.90
9808;DHT22;4943;52.550;13.462;2023-09-08T04:18:40;19.40;99.90
9808;DHT22;4943;52.550;13.462;2023-09-08T04:21:08;19.30;99.90
9808;DHT22;4943;52.550;13.462;2023-09-08T04:23:36;19.30;99.90
9808;DHT22;4943;52.550;13.462;2023-09-08T04:26:04;19.30;99.90
9808;DHT22;4943;52.550;13.462;2023-09-08T04:28:32;19.30;99.90
9808;DHT22;4943;52.550;13.462;2023-09-08T04:31:00;19.30;99.90
9808;DHT22;4943;52.550;13.462;2023-09-08T04:33:29;19.30;99.90
9808;DHT22;4943;52.550;13.462;2023-09-08T04:35:58;19.30;99.90
9808;DHT22;4943;52.550;13.462;2023-09-08T04:38:26;19.30;99.90
9808;DHT22;4943;52.550;13.462;2023-09-08T04:40:55;19.30;99.90
9808;DHT22;4943;52.550;13.462;2023-09-08T04:43:23;19.30;99.90
9808;DHT22;4943;52.550;13.462;2023-09-08T04:45:51;19.30;99.90
9808;DHT22;4943;52.550;13.462;2023-09-08T04:48:19;19.30;99.90
9808;DHT22;4943;52.550;13.462;2023-09-08T04:50:47;19.30;99.90
9808;DHT22;4943;52.550;13.462;2023-09-08T04:53:16;19.30;99.90
9808;DHT22;4943;52.550;13.462;2023-09-08T04:55:45;19.40;99.90
9808;DHT22;4943;52.550;13.462;2023-09-08T04:58:13;19.40;99.90
9808;DHT22;4943;52.550;13.462;2023-09-08T05:00:42;19.40;99.90
9808;DHT22;4943;52.550;13.462;2023-09-08T05:03:10;19.40;99.90
9808;DHT22;4943;52.550;13.462;2023-09-08T05:05:38;19.40;99.90
9808;DHT22;4943;52.550;13.462;2023-09-08T05:08:06;19.40;99.90
9808;DHT22;4943;52.550;13.462;2023-09-08T05:10:36;19.40;99.90
9808;DHT22;4943;52.550;13.462;2023-09-08T05:13:04;19.40;99.90
9808;DHT22;4943;52.550;13.462;2023-09-08T05:15:46;19.50;99.90
9808;DHT22;4943;52.550;13.462;2023-09-08T05:18:15;19.50;99.90
9808;DHT22;4943;52.550;13.462;2023-09-08T05:20:43;19.50;99.90
9808;DHT22;4943;52.550;13.462;2023-09-08T05:23:11;19.50;99.90
9808;DHT22;4943;52.550;13.462;2023-09-08T05:25:44;19.50;99.90
9808;DHT22;4943;52.550;13.462;2023-09-08T05:28:12;19.60;99.90
9808;DHT22;4943;52.550;13.462;2023-09-08T05:30:40;19.60;99.90
9808;DHT22;4943;52.550;13.462;2023-09-08T05:33:08;19.60;99.90
9808;DHT22;4943;52.550;13.462;2023-09-08T05:35:37;19.70;99.90
9808;DHT22;4943;52.550;13.462;2023-09-08T05:38:05;19.70;99.90
9808;DHT22;4943;52.550;13.462;2023-09-08T05:40:34;19.70;99.90
9808;DHT22;4943;52.550;13.462;2023-09-08T05:43:04;19.80;99.90
9808;DHT22;4943;52.550;13.462;2023-09-08T05:45:32;19.80;99.90
9808;DHT22;4943;52.550;13.462;2023-09-08T05:48:01;19.80;99.90
9808;DHT22;4943;52.550;13.462;2023-09-08T05:50:29;19.80;99.90
9808;DHT22;4943;52.550;13.462;2023-09-08T05:52:57;19.80;99.90
9808;DHT22;4943;52.550;13.462;2023-09-08T05:55:25;19.90;99.90
9808;DHT22;4943;52.550;13.462;2023-09-08T05:57:53;19.90;99.90
9808;DHT22;4943;52.550;13.462;2023-09-08T06:00:23;19.90;99.90
9808;DHT22;4943;52.550;13.462;2023-09-08T06:02:51;20.00;99.90
9808;DHT22;4943;52.550;13.462;2023-09-08T06:05:19;20.00;99.90
9808;DHT22;4943;52.550;13.462;2023-09-08T06:07:47;20.10;99.90
9808;DHT22;4943;52.550;13.462;2023-09-08T06:10:32;20.10;99.90
9808;DHT22;4943;52.550;13.462;2023-09-08T06:13:00;20.10;99.90
9808;DHT22;4943;52.550;13.462;2023-09-08T06:15:30;20.20;99.90
9808;DHT22;4943;52.550;13.462;2023-09-08T06:17:58;20.20;99.90
9808;DHT22;4943;52.550;13.462;2023-09-08T06:20:26;20.20;99.90
9808;DHT22;4943;52.550;13.462;2023-09-08T06:22:55;20.30;99.90
9808;DHT22;4943;52.550;13.462;2023-09-08T06:25:23;20.30;99.90
9808;DHT22;4943;52.550;13.462;2023-09-08T06:27:51;20.40;99.90
9808;DHT22;4943;52.550;13.462;2023-09-08T06:30:19;20.40;99.90
9808;DHT22;4943;52.550;13.462;2023-09-08T06:32:49;20.50;99.90
9808;DHT22;4943;52.550;13.462;2023-09-08T06:35:17;20.50;99.90
9808;DHT22;4943;52.550;13.462;2023-09-08T06:37:45;20.50;99.90
9808;DHT22;4943;52.550;13.462;2023-09-08T06:40:13;20.60;99.90
9808;DHT22;4943;52.550;13.462;2023-09-08T06:42:41;20.60;99.90
9808;DHT22;4943;52.550;13.462;2023-09-08T06:45:10;20.70;99.90
9808;DHT22;4943;52.550;13.462;2023-09-08T06:47:38;20.70;99.90
9808;DHT22;4943;52.550;13.462;2023-09-08T06:50:08;20.80;99.90
9808;DHT22;4943;52.550;13.462;2023-09-08T06:52:36;20.80;99.90
9808;DHT22;4943;52.550;13.462;2023-09-08T06:55:07;20.90;99.90
9808;DHT22;4943;52.550;13.462;2023-09-08T06:57:36;20.90;99.90
9808;DHT22;4943;52.550;13.462;2023-09-08T07:00:05;20.90;99.90
9808;DHT22;4943;52.550;13.462;2023-09-08T07:02:34;21.00;99.90
9808;DHT22;4943;52.550;13.462;2023-09-08T07:05:03;21.00;99.90
9808;DHT22;4943;52.550;13.462;2023-09-08T07:07:36;21.10;99.90
9808;DHT22;4943;52.550;13.462;2023-09-08T07:10:05;21.10;99.90
9808;DHT22;4943;52.550;13.462;2023-09-08T07:12:33;21.20;99.90
9808;DHT22;4943;52.550;13.462;2023-09-08T07:15:02;21.20;99.90
9808;DHT22;4943;52.550;13.462;2023-09-08T07:17:30;21.30;99.90
9808;DHT22;4943;52.550;13.462;2023-09-08T07:19:58;21.30;99.90
9808;DHT22;4943;52.550;13.462;2023-09-08T07:22:26;21.40;99.90
9808;DHT22;4943;52.550;13.462;2023-09-08T07:24:56;21.40;99.90
9808;DHT22;4943;52.550;13.462;2023-09-08T07:27:24;21.50;99.90
9808;DHT22;4943;52.550;13.462;2023-09-08T07:29:53;21.50;99.90
9808;DHT22;4943;52.550;13.462;2023-09-08T07:32:21;21.60;99.90
9808;DHT22;4943;52.550;13.462;2023-09-08T07:34:51;21.60;99.90
9808;DHT22;4943;52.550;13.462;2023-09-08T07:37:22;21.60;99.90
9808;DHT22;4943;52.550;13.462;2023-09-08T07:39:50;21.70;99.90
9808;DHT22;4943;52.550;13.462;2023-09-08T07:42:20;21.80;99.90
9808;DHT22;4943;52.550;13.462;2023-09-08T07:44:48;21.80;99.90
9808;DHT22;4943;52.550;13.462;2023-09-08T07:47:16;21.90;99.90
9808;DHT22;4943;52.550;13.462;2023-09-08T07:49:45;21.90;99.90
9808;DHT22;4943;52.550;13.462;2023-09-08T07:52:14;22.00;99.90
9808;DHT22;4943;52.550;13.462;2023-09-08T07:54:42;22.00;99.90
9808;DHT22;4943;52.550;13.462;2023-09-08T07:57:10;22.10;99.90
9808;DHT22;4943;52.550;13.462;2023-09-08T07:59:40;22.10;99.90
9808;DHT22;4943;52.550;13.462;2023-09-08T08:02:08;22.20;99.90
9808;DHT22;4943;52.550;13.462;2023-09-08T08:04:37;22.20;99.90
9808;DHT22;4943;52.550;13.462;2023-09-08T08:07:06;22.30;99.90
9808;DHT22;4943;52.550;13.462;2023-09-08T08:09:34;22.30;99.90
9808;DHT22;4943;52.550;13.462;2023-09-08T08:12:02;22.40;99.90
9808;DHT22;4943;52.550;13.462;2023-09-08T08:14:30;22.40;99.90
9808;DHT22;4943;52.550;13.462;2023-09-08T08:17:00;22.50;99.90
9808;DHT22;4943;52.550;13.462;2023-09-08T08:19:28;22.50;99.90
9808;DHT22;4943;52.550;13.462;2023-09-08T08:21:56;22.60;99.90
9808;DHT22;4943;52.550;13.462;2023-09-08T08:24:24;22.60;99.90
9808;DHT22;4943;52.550;13.462;2023-09-08T08:26:54;22.70;99.90
9808;DHT22;4943;52.550;13.462;2023-09-08T08:29:22;22.70;99.90
9808;DHT22;4943;52.550;13.462;2023-09-08T08:31:50;22.80;99.90
9808;DHT22;4943;52.550;13.462;2023-09-08T08:34:19;22.80;99.90
9808;DHT22;4943;52.550;13.462;2023-09-08T08:36:48;22.90;99.90
9808;DHT22;4943;52.550;13.462;2023-09-08T08:39:16;22.90;99.90
9808;DHT22;4943;52.550;13.462;2023-09-08T08:41:44;23.00;99.90
9808;DHT22;4943;52.550;13.462;2023-09-08T08:44:13;23.10;99.90
9808;DHT22;4943;52.550;13.462;2023-09-08T08:46:45;23.10;99.90
9808;DHT22;4943;52.550;13.462;2023-09-08T08:49:15;23.20;99.90
9808;DHT22;4943;52.550;13.462;2023-09-08T08:51:45;23.20;99.90
9808;DHT22;4943;52.550;13.462;2023-09-08T08:54:15;23.20;99.90
9808;DHT22;4943;52.550;13.462;2023-09-08T08:56:44;23.30;99.90
9808;DHT22;4943;52.550;13.462;2023-09-08T08:59:13;23.40;99.90
9808;DHT22;4943;52.550;13.462;2023-09-08T09:01:42;23.40;99.90
9808;DHT22;4943;52.550;13.462;2023-09-08T09:04:10;23.50;99.90
9808;DHT22;4943;52.550;13.462;2023-09-08T09:06:40;23.50;99.90
9808;DHT22;4943;52.550;13.462;2023-09-08T09:09:09;23.60;99.90
9808;DHT22;4943;52.550;13.462;2023-09-08T09:11:37;23.60;99.90
9808;DHT22;4943;52.550;13.462;2023-09-08T09:14:06;23.70;99.90
9808;DHT22;4943;52.550;13.462;2023-09-08T09:16:39;23.80;99.90
9808;DHT22;4943;52.550;13.462;2023-09-08T09:19:08;23.80;99.90
9808;DHT22;4943;52.550;13.462;2023-09-08T09:21:42;23.90;99.90
9808;DHT22;4943;52.550;13.462;2023-09-08T09:24:15;23.90;99.90
9808;DHT22;4943;52.550;13.462;2023-09-08T09:26:51;24.00;99.90
9808;DHT22;4943;52.550;13.462;2023-09-08T09:29:20;24.00;99.90
9808;DHT22;4943;52.550;13.462;2023-09-08T09:31:51;24.00;99.90
9808;DHT22;4943;52.550;13.462;2023-09-08T09:34:21;24.10;99.90
9808;DHT22;4943;52.550;13.462;2023-09-08T09:36:50;24.10;99.90
9808;DHT22;4943;52.550;13.462;2023-09-08T09:39:20;24.20;99.90
9808;DHT22;4943;52.550;13.462;2023-09-08T09:41:48;24.30;99.90
9808;DHT22;4943;52.550;13.462;2023-09-08T09:44:17;24.30;99.90
9808;DHT22;4943;52.550;13.462;2023-09-08T09:46:45;24.40;99.90
9808;DHT22;4943;52.550;13.462;2023-09-08T09:49:14;24.40;99.90
9808;DHT22;4943;52.550;13.462;2023-09-08T09:51:44;24.50;99.90
9808;DHT22;4943;52.550;13.462;2023-09-08T09:54:15;24.50;99.90
9808;DHT22;4943;52.550;13.462;2023-09-08T09:56:45;24.50;99.90
9808;DHT22;4943;52.550;13.462;2023-09-08T09:59:17;24.60;99.90
9808;DHT22;4943;52.550;13.462;2023-09-08T10:01:45;24.60;99.90
9808;DHT22;4943;52.550;13.462;2023-09-08T10:04:14;24.70;99.90
9808;DHT22;4943;52.550;13.462;2023-09-08T10:06:43;24.70;99.90
9808;DHT22;4943;52.550;13.462;2023-09-08T10:09:13;24.80;99.90
9808;DHT22;4943;52.550;13.462;2023-09-08T10:11:47;24.80;99.90
9808;DHT22;4943;52.550;13.462;2023-09-08T10:14:18;24.90;99.90
9808;DHT22;4943;52.550;13.462;2023-09-08T10:16:47;25.00;99.90
9808;DHT22;4943;52.550;13.462;2023-09-08T10:19:17;25.00;99.90
9808;DHT22;4943;52.550;13.462;2023-09-08T10:21:46;25.00;99.90
9808;DHT22;4943;52.550;13.462;2023-09-08T10:24:15;25.10;99.90
9808;DHT22;4943;52.550;13.462;2023-09-08T10:26:56;25.10;99.90
9808;DHT22;4943;52.550;13.462;2023-09-08T10:29:27;25.10;99.90
9808;DHT22;4943;52.550;13.462;2023-09-08T10:31:56;25.20;99.90
9808;DHT22;4943;52.550;13.462;2023-09-08T10:34:25;25.20;99.90
9808;DHT22;4943;52.550;13.462;2023-09-08T10:36:54;25.20;99.90
9808;DHT22;4943;52.550;13.462;2023-09-08T10:39:29;25.20;99.90
9808;DHT22;4943;52.550;13.462;2023-09-08T10:42:25;25.30;99.90
9808;DHT22;4943;52.550;13.462;2023-09-08T10:44:56;25.30;99.90
9808;DHT22;4943;52.550;13.462;2023-09-08T10:47:25;25.30;99.90
9808;DHT22;4943;52.550;13.462;2023-09-08T10:49:56;25.40;99.90
9808;DHT22;4943;52.550;13.462;2023-09-08T10:52:27;25.40;99.90
9808;DHT22;4943;52.550;13.462;2023-09-08T10:54:56;25.50;99.90
9808;DHT22;4943;52.550;13.462;2023-09-08T10:57:25;25.50;99.90
9808;DHT22;4943;52.550;13.462;2023-09-08T10:59:54;25.50;99.90
9808;DHT22;4943;52.550;13.462;2023-09-08T11:02:33;25.50;99.90
9808;DHT22;4943;52.550;13.462;2023-09-08T11:05:02;25.60;99.90
9808;DHT22;4943;52.550;13.462;2023-09-08T11:07:31;25.60;99.90
9808;DHT22;4943;52.550;13.462;2023-09-08T11:10:00;25.70;99.90
9808;DHT22;4943;52.550;13.462;2023-09-08T11:12:30;25.70;99.90
9808;DHT22;4943;52.550;13.462;2023-09-08T11:14:58;25.80;99.90
9808;DHT22;4943;52.550;13.462;2023-09-08T11:17:27;25.80;99.90
9808;DHT22;4943;52.550;13.462;2023-09-08T11:19:56;25.80;99.90
9808;DHT22;4943;52.550;13.462;2023-09-08T11:22:25;25.80;99.90
9808;DHT22;4943;52.550;13.462;2023-09-08T11:24:56;25.90;99.90
9808;DHT22;4943;52.550;13.462;2023-09-08T11:27:25;25.90;99.90
9808;DHT22;4943;52.550;13.462;2023-09-08T11:29:56;25.90;99.60
9808;DHT22;4943;52.550;13.462;2023-09-08T11:32:24;25.90;99.90
9808;DHT22;4943;52.550;13.462;2023-09-08T11:34:52;26.00;99.60
9808;DHT22;4943;52.550;13.462;2023-09-08T11:37:20;26.00;99.60
9808;DHT22;4943;52.550;13.462;2023-09-08T11:39:48;26.00;99.30
9808;DHT22;4943;52.550;13.462;2023-09-08T11:42:17;26.10;99.30
9808;DHT22;4943;52.550;13.462;2023-09-08T11:44:48;26.10;99.20
9808;DHT22;4943;52.550;13.462;2023-09-08T11:47:17;26.10;99.20
9808;DHT22;4943;52.550;13.462;2023-09-08T11:49:46;26.10;99.40
9808;DHT22;4943;52.550;13.462;2023-09-08T11:52:14;26.10;99.10
9808;DHT22;4943;52.550;13.462;2023-09-08T11:54:42;26.20;98.90
9808;DHT22;4943;52.550;13.462;2023-09-08T11:57:31;26.20;98.90
9808;DHT22;4943;52.550;13.462;2023-09-08T12:00:00;26.20;98.80
9808;DHT22;4943;52.550;13.462;2023-09-08T12:02:36;26.30;98.70
9808;DHT22;4943;52.550;13.462;2023-09-08T12:05:05;26.30;98.70
9808;DHT22;4943;52.550;13.462;2023-09-08T12:07:33;26.30;98.50
9808;DHT22;4943;52.550;13.462;2023-09-08T12:10:07;26.40;98.60
9808;DHT22;4943;52.550;13.462;2023-09-08T12:12:41;26.50;98.40
9808;DHT22;4943;52.550;13.462;2023-09-08T12:15:10;26.50;98.30
9808;DHT22;4943;52.550;13.462;2023-09-08T12:17:49;26.50;98.10
9808;DHT22;4943;52.550;13.462;2023-09-08T12:20:18;26.60;98.00
9808;DHT22;4943;52.550;13.462;2023-09-08T12:22:50;26.60;97.90
9808;DHT22;4943;52.550;13.462;2023-09-08T12:25:19;26.70;97.50
9808;DHT22;4943;52.550;13.462;2023-09-08T12:27:50;26.70;97.40
9808;DHT22;4943;52.550;13.462;2023-09-08T12:30:19;26.70;97.10
9808;DHT22;4943;52.550;13.462;2023-09-08T12:32:49;26.80;97.20
9808;DHT22;4943;52.550;13.462;2023-09-08T12:35:21;26.80;97.20
9808;DHT22;4943;52.550;13.462;2023-09-08T12:37:56;26.80;97.30
9808;DHT22;4943;52.550;13.462;2023-09-08T12:40:25;26.90;97.40
9808;DHT22;4943;52.550;13.462;2023-09-08T12:42:53;26.90;97.30
9808;DHT22;4943;52.550;13.462;2023-09-08T12:45:32;26.80;97.30
9808;DHT22;4943;52.550;13.462;2023-09-08T12:48:02;26.90;97.40
9808;DHT22;4943;52.550;13.462;2023-09-08T12:50:30;26.90;97.30
9808;DHT22;4943;52.550;13.462;2023-09-08T12:52:59;26.90;97.30
9808;DHT22;4943;52.550;13.462;2023-09-08T12:55:27;27.00;97.40
9808;DHT22;4943;52.550;13.462;2023-09-08T12:57:55;27.00;97.40
9808;DHT22;4943;52.550;13.462;2023-09-08T13:00:24;27.00;97.50
9808;DHT22;4943;52.550;13.462;2023-09-08T13:02:54;27.10;97.60
9808;DHT22;4943;52.550;13.462;2023-09-08T13:05:23;27.10;97.10
9808;DHT22;4943;52.550;13.462;2023-09-08T13:07:51;27.20;97.10
9808;DHT22;4943;52.550;13.462;2023-09-08T13:10:20;27.10;97.10
9808;DHT22;4943;52.550;13.462;2023-09-08T13:12:48;27.20;96.80
9808;DHT22;4943;52.550;13.462;2023-09-08T13:15:16;27.30;97.00
9808;DHT22;4943;52.550;13.462;2023-09-08T13:17:44;27.30;96.90
9808;DHT22;4943;52.550;13.462;2023-09-08T13:20:12;27.40;96.90
9808;DHT22;4943;52.550;13.462;2023-09-08T13:22:42;27.40;96.50
9808;DHT22;4943;52.550;13.462;2023-09-08T13:25:11;27.40;96.50
9808;DHT22;4943;52.550;13.462;2023-09-08T13:27:40;27.50;96.60
9808;DHT22;4943;52.550;13.462;2023-09-08T13:30:10;27.50;96.60
9808;DHT22;4943;52.550;13.462;2023-09-08T13:32:38;27.50;96.30
9808;DHT22;4943;52.550;13.462;2023-09-08T13:35:07;27.50;95.90
9808;DHT22;4943;52.550;13.462;2023-09-08T13:37:35;27.50;96.00
9808;DHT22;4943;52.550;13.462;2023-09-08T13:40:07;27.50;96.10
9808;DHT22;4943;52.550;13.462;2023-09-08T13:42:36;27.50;96.00
9808;DHT22;4943;52.550;13.462;2023-09-08T13:45:05;27.60;95.70
9808;DHT22;4943;52.550;13.462;2023-09-08T13:47:35;27.60;95.30
9808;DHT22;4943;52.550;13.462;2023-09-08T13:50:06;27.60;95.50
9808;DHT22;4943;52.550;13.462;2023-09-08T13:52:36;27.70;95.30
9808;DHT22;4943;52.550;13.462;2023-09-08T13:55:09;27.70;95.00
9808;DHT22;4943;52.550;13.462;2023-09-08T13:57:57;27.70;94.80
9808;DHT22;4943;52.550;13.462;2023-09-08T14:00:28;27.70;95.20
9808;DHT22;4943;52.550;13.462;2023-09-08T14:02:58;27.70;95.30
9808;DHT22;4943;52.550;13.462;2023-09-08T14:05:32;27.70;95.30
9808;DHT22;4943;52.550;13.462;2023-09-08T14:08:04;27.80;95.50
9808;DHT22;4943;52.550;13.462;2023-09-08T14:10:45;27.80;95.10
9808;DHT22;4943;52.550;13.462;2023-09-08T14:13:29;27.80;95.00
9808;DHT22;4943;52.550;13.462;2023-09-08T14:15:57;27.90;94.90
9808;DHT22;4943;52.550;13.462;2023-09-08T14:18:28;27.90;94.90
9808;DHT22;4943;52.550;13.462;2023-09-08T14:20:57;27.90;94.90
9808;DHT22;4943;52.550;13.462;2023-09-08T14:23:25;28.00;94.60
9808;DHT22;4943;52.550;13.462;2023-09-08T14:25:55;28.00;94.70
9808;DHT22;4943;52.550;13.462;2023-09-08T14:28:23;28.00;94.70
9808;DHT22;4943;52.550;13.462;2023-09-08T14:30:53;28.10;94.50
9808;DHT22;4943;52.550;13.462;2023-09-08T14:33:21;28.10;94.20
9808;DHT22;4943;52.550;13.462;2023-09-08T14:35:49;28.10;94.30
9808;DHT22;4943;52.550;13.462;2023-09-08T14:38:19;28.10;94.50
9808;DHT22;4943;52.550;13.462;2023-09-08T14:40:56;28.20;94.40
9808;DHT22;4943;52.550;13.462;2023-09-08T14:43:24;28.20;94.30
9808;DHT22;4943;52.550;13.462;2023-09-08T14:45:53;28.20;94.00
9808;DHT22;4943;52.550;13.462;2023-09-08T14:48:23;28.20;94.10
9808;DHT22;4943;52.550;13.462;2023-09-08T14:50:52;28.30;94.20
9808;DHT22;4943;52.550;13.462;2023-09-08T14:53:20;28.30;94.20
9808;DHT22;4943;52.550;13.462;2023-09-08T14:55:48;28.30;94.30
9808;DHT22;4943;52.550;13.462;2023-09-08T14:58:18;28.30;94.20
9808;DHT22;4943;52.550;13.462;2023-09-08T15:00:46;28.40;94.20
9808;DHT22;4943;52.550;13.462;2023-09-08T15:03:15;28.40;94.00
9808;DHT22;4943;52.550;13.462;2023-09-08T15:05:43;28.40;93.80
9808;DHT22;4943;52.550;13.462;2023-09-08T15:08:11;28.40;94.00
9808;DHT22;4943;52.550;13.462;2023-09-08T15:10:40;28.40;94.00
9808;DHT22;4943;52.550;13.462;2023-09-08T15:13:08;28.40;93.90
9808;DHT22;4943;52.550;13.462;2023-09-08T15:15:37;28.50;94.00
9808;DHT22;4943;52.550;13.462;2023-09-08T15:18:06;28.40;93.60
9808;DHT22;4943;52.550;13.462;2023-09-08T15:20:34;28.40;93.50
9808;DHT22;4943;52.550;13.462;2023-09-08T15:23:02;28.50;93.70
9808;DHT22;4943;52.550;13.462;2023-09-08T15:25:33;28.50;93.90
9808;DHT22;4943;52.550;13.462;2023-09-08T15:28:02;28.60;94.00
9808;DHT22;4943;52.550;13.462;2023-09-08T15:30:30;28.60;93.90
9808;DHT22;4943;52.550;13.462;2023-09-08T15:33:03;28.70;93.90
9808;DHT22;4943;52.550;13.462;2023-09-08T15:35:33;28.70;93.80
9808;DHT22;4943;52.550;13.462;2023-09-08T15:38:01;28.80;94.10
9808;DHT22;4943;52.550;13.462;2023-09-08T15:40:30;28.80;93.80
9808;DHT22;4943;52.550;13.462;2023-09-08T15:42:58;28.90;93.70
9808;DHT22;4943;52.550;13.462;2023-09-08T15:45:27;28.90;93.60
9808;DHT22;4943;52.550;13.462;2023-09-08T15:47:55;29.00;93.60
9808;DHT22;4943;52.550;13.462;2023-09-08T15:50:24;29.10;93.50
9808;DHT22;4943;52.550;13.462;2023-09-08T15:52:54;29.20;93.20
9808;DHT22;4943;52.550;13.462;2023-09-08T15:55:22;29.20;93.10
9808;DHT22;4943;52.550;13.462;2023-09-08T15:57:50;29.30;93.20
9808;DHT22;4943;52.550;13.462;2023-09-08T16:00:19;29.30;93.10
9808;DHT22;4943;52.550;13.462;2023-09-08T16:02:47;29.40;93.10